createdAt,value
2019-04-14T00:02:23.179Z,31.90
2019-04-14T00:04:55.070Z,31.23
2019-04-14T00:07:25.490Z,32.60
2019-04-14T00:09:54.882Z,34.07
2019-04-14T00:12:25.142Z,33.23
2019-04-14T00:14:55.471Z,32.57
2019-04-14T00:17:26.165Z,33.43
2019-04-14T00:19:56.665Z,33.20
2019-04-14T00:22:28.086Z,33.07
2019-04-14T00:24:57.517Z,32.40
2019-04-14T00:27:28.114Z,34.20
2019-04-14T00:29:58.895Z,32.73
2019-04-14T00:32:31.204Z,31.67
2019-04-14T00:35:02.412Z,32.53
2019-04-14T00:37:33.657Z,32.30
2019-04-14T00:40:15.013Z,31.40
2019-04-14T00:42:47.349Z,32.20
2019-04-14T00:45:32.240Z,31.83
2019-04-14T00:48:01.070Z,31.27
2019-04-14T00:50:25.443Z,32.03
2019-04-14T00:52:58.812Z,31.40
2019-04-14T00:55:29.260Z,32.17
2019-04-14T00:57:59.947Z,33.60
2019-04-14T01:00:29.731Z,31.00
2019-04-14T01:03:00.185Z,29.10
2019-04-14T01:05:32.884Z,31.27
2019-04-14T01:08:01.470Z,30.70
2019-04-14T01:10:32.101Z,29.90
2019-04-14T01:13:02.690Z,30.87
2019-04-14T01:15:44.801Z,30.73
2019-04-14T01:18:03.605Z,32.60
2019-04-14T01:20:33.957Z,32.63
2019-04-14T01:23:04.176Z,33.07
2019-04-14T01:25:34.572Z,32.60
2019-04-14T01:28:04.671Z,33.00
2019-04-14T01:30:35.117Z,31.17
2019-04-14T01:33:05.456Z,30.10
2019-04-14T01:35:35.734Z,29.67
2019-04-14T01:38:05.890Z,27.03
2019-04-14T01:40:35.947Z,32.37
2019-04-14T01:43:05.992Z,31.83
2019-04-14T01:45:35.916Z,33.33
2019-04-14T01:48:05.979Z,34.07
2019-04-14T01:50:37.054Z,34.37
2019-04-14T01:53:08.122Z,33.83
2019-04-14T01:55:42.096Z,33.80
2019-04-14T01:58:14.295Z,34.07
2019-04-14T02:00:55.364Z,33.40
2019-04-14T02:03:25.953Z,32.63
2019-04-14T02:05:56.115Z,35.27
2019-04-14T02:08:26.923Z,35.30
2019-04-14T02:10:56.602Z,33.57
2019-04-14T02:13:26.793Z,32.60
2019-04-14T02:15:57.337Z,33.43
2019-04-14T02:18:27.247Z,30.67
2019-04-14T02:20:57.807Z,30.67
2019-04-14T02:23:27.993Z,30.63
2019-04-14T02:25:57.950Z,30.90
2019-04-14T02:28:28.774Z,30.03
2019-04-14T02:31:12.101Z,30.53
2019-04-14T02:33:50.893Z,32.90
2019-04-14T02:39:13.910Z,32.23
2019-04-14T02:41:44.266Z,30.90
2019-04-14T02:44:05.008Z,32.27
2019-04-14T02:46:40.033Z,32.67
2019-04-14T02:49:04.728Z,31.00
2019-04-14T02:59:05.916Z,33.27
2019-04-14T03:01:48.329Z,33.63
2019-04-14T03:04:09.336Z,32.03
2019-04-14T03:11:38.063Z,32.97
2019-04-14T03:17:08.147Z,31.07
2019-04-14T03:19:48.210Z,33.20
2019-04-14T03:24:45.281Z,31.57
2019-04-14T03:27:44.883Z,31.43
2019-04-14T03:30:33.658Z,32.87
2019-04-14T03:40:18.593Z,29.37
2019-04-14T03:42:54.211Z,28.30
2019-04-14T03:45:29.988Z,28.23
2019-04-14T03:48:14.866Z,27.80
2019-04-14T03:50:21.245Z,28.47
2019-04-14T03:52:59.630Z,30.13
2019-04-14T03:55:16.330Z,31.97
2019-04-14T03:57:32.730Z,31.93
2019-04-14T04:00:03.199Z,31.03
2019-04-14T04:02:33.719Z,31.27
2019-04-14T04:05:04.202Z,32.20
2019-04-14T04:07:34.305Z,30.47
2019-04-14T04:10:07.225Z,31.33
2019-04-14T04:12:37.881Z,32.23
2019-04-14T04:15:08.382Z,33.50
2019-04-14T04:17:51.754Z,35.37
2019-04-14T04:20:32.828Z,37.53
2019-04-14T04:23:16.293Z,40.50
2019-04-14T04:25:48.584Z,42.93
2019-04-14T04:28:36.423Z,46.83
2019-04-14T04:31:13.449Z,47.70
2019-04-14T04:33:45.740Z,46.43
2019-04-14T04:36:23.059Z,48.13
2019-04-14T04:39:10.368Z,42.50
2019-04-14T04:41:40.695Z,43.90
2019-04-14T04:44:11.479Z,44.30
2019-04-14T04:46:41.599Z,42.70
2019-04-14T04:49:16.485Z,43.13
2019-04-14T04:51:42.205Z,42.47
2019-04-14T04:54:12.528Z,43.90
2019-04-14T04:56:42.705Z,38.87
2019-04-14T04:59:12.673Z,39.53
2019-04-14T05:01:42.939Z,38.90
2019-04-14T05:04:13.274Z,38.70
2019-04-14T05:06:50.598Z,34.07
2019-04-14T05:09:36.996Z,40.53
2019-04-14T05:12:19.698Z,39.03
2019-04-14T05:14:54.458Z,37.40
2019-04-14T05:17:25.692Z,37.93
2019-04-14T05:19:56.128Z,36.53
2019-04-14T05:22:26.677Z,33.33
2019-04-14T05:24:59.202Z,35.63
2019-04-14T05:27:29.828Z,32.07
2019-04-14T05:30:00.403Z,32.00
2019-04-14T05:32:30.521Z,31.93
2019-04-14T05:35:00.851Z,30.70
2019-04-14T05:37:31.112Z,29.63
2019-04-14T05:40:01.614Z,29.03
2019-04-14T05:42:32.372Z,31.67
2019-04-14T05:45:02.458Z,27.43
2019-04-14T05:47:33.155Z,31.40
2019-04-14T05:50:03.181Z,30.03
2019-04-14T05:52:33.878Z,31.30
2019-04-14T05:55:04.520Z,29.67
2019-04-14T05:57:35.088Z,28.97
2019-04-14T06:00:08.050Z,30.60
2019-04-14T06:02:37.788Z,30.83
2019-04-14T06:05:08.997Z,31.97
2019-04-14T06:07:38.310Z,29.70
2019-04-14T06:10:07.743Z,31.27
2019-04-14T06:12:37.215Z,31.43
2019-04-14T06:15:06.637Z,33.33
2019-04-14T06:17:36.138Z,30.53
2019-04-14T06:20:05.563Z,29.53
2019-04-14T06:22:35.020Z,31.87
2019-04-14T06:25:06.712Z,31.73
2019-04-14T06:27:36.117Z,36.38
2019-04-14T06:30:08.059Z,31.73
2019-04-14T06:32:45.098Z,30.77
2019-04-14T06:35:32.685Z,29.97
2019-04-14T06:38:05.854Z,36.60
2019-04-14T06:40:36.580Z,31.20
2019-04-14T06:43:05.983Z,31.20
2019-04-14T06:45:35.377Z,30.03
2019-04-14T06:48:04.823Z,33.05
2019-04-14T06:50:34.242Z,36.90
2019-04-14T06:53:03.695Z,29.63
2019-04-14T06:55:33.125Z,29.40
2019-04-14T06:58:02.532Z,34.18
2019-04-14T07:00:31.907Z,30.30
2019-04-14T07:03:01.259Z,28.80
2019-04-14T07:05:30.725Z,35.78
2019-04-14T07:08:00.048Z,30.77
2019-04-14T07:10:29.392Z,30.77
2019-04-14T07:12:58.744Z,31.33
2019-04-14T07:15:28.118Z,35.10
2019-04-14T07:17:57.477Z,35.23
2019-04-14T07:20:26.811Z,29.07
2019-04-14T07:22:56.194Z,36.28
2019-04-14T07:25:25.610Z,35.13
2019-04-14T07:27:56.217Z,29.90
2019-04-14T07:30:29.758Z,29.97
2019-04-14T07:33:00.816Z,30.40
2019-04-14T07:35:41.102Z,30.07
2019-04-14T07:38:12.070Z,30.73
2019-04-14T07:40:49.227Z,28.80
2019-04-14T07:43:26.082Z,31.37
2019-04-14T07:45:57.163Z,31.00
2019-04-14T07:48:28.184Z,29.37
2019-04-14T07:51:03.246Z,34.55
2019-04-14T07:53:34.400Z,36.85
2019-04-14T07:56:08.272Z,29.53
2019-04-14T07:58:39.298Z,29.37
2019-04-14T08:01:10.363Z,30.12
2019-04-14T08:03:44.565Z,28.83
2019-04-14T08:06:13.911Z,29.87
2019-04-14T08:08:43.255Z,36.48
2019-04-14T08:11:12.728Z,34.05
2019-04-14T08:13:43.190Z,35.25
2019-04-14T08:16:12.522Z,30.47
2019-04-14T08:18:42.050Z,31.03
2019-04-14T08:21:11.563Z,29.37
2019-04-14T08:23:40.971Z,28.33
2019-04-14T08:26:10.288Z,27.67
2019-04-14T08:28:39.779Z,31.13
2019-04-14T08:31:09.242Z,29.90
2019-04-14T08:33:38.588Z,30.80
2019-04-14T08:36:07.982Z,31.10
2019-04-14T08:38:37.400Z,30.67
2019-04-14T08:41:07.796Z,31.23
2019-04-14T08:43:52.280Z,30.43
2019-04-14T08:46:38.564Z,33.40
2019-04-14T08:49:12.102Z,32.93
2019-04-14T08:51:49.252Z,32.07
2019-04-14T08:54:25.849Z,36.53
2019-04-14T08:56:59.914Z,32.27
2019-04-14T08:59:33.878Z,31.70
2019-04-14T09:02:10.847Z,32.50
2019-04-14T09:04:41.812Z,32.73
2019-04-14T09:07:15.947Z,29.60
2019-04-14T09:09:46.983Z,25.77
2019-04-14T09:12:18.044Z,23.27
2019-04-14T09:14:56.864Z,30.13
2019-04-14T09:17:18.483Z,30.17
2019-04-14T09:19:47.872Z,22.63
2019-04-14T09:22:17.182Z,22.50
2019-04-14T09:24:46.522Z,31.73
2019-04-14T09:27:15.831Z,19.17
2019-04-14T09:29:45.158Z,24.00
2019-04-14T09:32:14.935Z,26.17
2019-04-14T09:34:44.255Z,27.20
2019-04-14T09:37:14.766Z,26.63
2019-04-14T09:39:44.204Z,23.20
2019-04-14T09:42:13.574Z,32.13
2019-04-14T09:44:42.983Z,28.47
2019-04-14T09:47:12.311Z,31.83
2019-04-14T09:49:41.701Z,29.67
2019-04-14T09:52:11.022Z,30.57
2019-04-14T09:54:40.426Z,26.30
2019-04-14T09:57:09.759Z,29.47
2019-04-14T09:59:39.172Z,23.27
2019-04-14T10:02:08.489Z,23.97
2019-04-14T10:04:37.866Z,24.23
2019-04-14T10:07:07.224Z,24.37
2019-04-14T10:09:36.614Z,23.43
2019-04-14T10:12:06.027Z,28.07
2019-04-14T10:14:35.471Z,23.67
2019-04-14T10:17:04.841Z,22.17
2019-04-14T10:19:34.178Z,24.27
2019-04-14T10:22:03.612Z,25.67
2019-04-14T10:24:33.050Z,26.30
2019-04-14T10:27:02.441Z,24.70
2019-04-14T10:29:31.829Z,25.37
2019-04-14T10:32:01.184Z,27.53
2019-04-14T10:34:30.484Z,26.97
2019-04-14T10:36:59.800Z,26.23
2019-04-14T10:39:29.136Z,24.93
2019-04-14T10:41:58.499Z,26.50
2019-04-14T10:44:27.884Z,28.23
2019-04-14T10:46:57.215Z,28.60
2019-04-14T10:49:26.609Z,27.77
2019-04-14T10:51:55.921Z,28.80
2019-04-14T10:54:25.345Z,25.67
2019-04-14T10:56:56.289Z,21.90
2019-04-14T10:59:25.739Z,23.23
2019-04-14T11:01:56.279Z,23.50
2019-04-14T11:04:25.621Z,26.10
2019-04-14T11:06:56.582Z,25.53
2019-04-14T11:09:25.986Z,26.60
2019-04-14T11:11:55.451Z,23.90
2019-04-14T11:14:24.846Z,24.10
2019-04-14T11:16:54.162Z,26.60
2019-04-14T11:19:23.582Z,28.57
2019-04-14T11:21:53.289Z,23.03
2019-04-14T11:24:24.115Z,22.70
2019-04-14T11:26:53.782Z,25.90
2019-04-14T11:29:23.313Z,26.43
2019-04-14T11:31:54.438Z,24.90
2019-04-14T11:34:31.044Z,24.70
2019-04-14T11:37:14.274Z,24.10
2019-04-14T11:39:45.351Z,24.23
2019-04-14T11:42:14.720Z,23.83
2019-04-14T11:44:44.187Z,22.40
2019-04-14T11:47:16.147Z,22.70
2019-04-14T11:49:44.740Z,23.87
2019-04-14T11:52:14.141Z,22.93
2019-04-14T11:54:45.602Z,24.97
2019-04-14T11:57:14.935Z,23.60
2019-04-14T11:59:51.816Z,23.00
2019-04-14T12:02:34.701Z,24.33
2019-04-14T12:05:06.683Z,24.60
2019-04-14T12:07:40.365Z,26.77
2019-04-14T12:10:11.603Z,25.37
2019-04-14T12:12:41.007Z,23.43
2019-04-14T12:15:16.072Z,24.73
2019-04-14T12:17:43.054Z,28.13
2019-04-14T12:20:12.669Z,24.83
2019-04-14T12:22:42.227Z,26.83
2019-04-14T12:25:11.620Z,22.90
2019-04-14T12:27:42.030Z,23.83
2019-04-14T12:30:13.596Z,25.60
2019-04-14T12:32:43.102Z,26.93
2019-04-14T12:35:12.459Z,24.07
2019-04-14T12:37:42.034Z,26.57
2019-04-14T12:40:11.417Z,25.00
2019-04-14T12:42:51.414Z,26.23
2019-04-14T12:45:28.554Z,24.70
2019-04-14T12:48:17.898Z,26.87
2019-04-14T12:50:49.155Z,24.80
2019-04-14T12:53:18.645Z,26.70
2019-04-14T12:55:48.044Z,26.20
2019-04-14T12:58:19.083Z,26.33
2019-04-14T13:00:50.050Z,24.73
2019-04-14T13:03:20.126Z,25.70
2019-04-14T13:05:49.436Z,25.93
2019-04-14T13:08:18.761Z,25.63
2019-04-14T13:10:48.409Z,24.83
2019-04-14T13:13:20.029Z,25.50
2019-04-14T13:15:49.393Z,25.33
2019-04-14T13:18:18.758Z,25.77
2019-04-14T13:20:48.099Z,24.60
2019-04-14T13:23:17.508Z,27.03
2019-04-14T13:25:46.901Z,26.03
2019-04-14T13:28:16.373Z,26.20
2019-04-14T13:30:47.183Z,26.57
2019-04-14T13:33:16.508Z,26.37
2019-04-14T13:35:45.879Z,27.60
2019-04-14T13:38:15.207Z,26.10
2019-04-14T13:40:44.763Z,25.50
2019-04-14T13:43:14.165Z,25.27
2019-04-14T13:45:43.578Z,27.30
2019-04-14T13:48:12.987Z,25.60
2019-04-14T13:50:42.391Z,27.23
2019-04-14T13:53:11.760Z,27.03
2019-04-14T13:55:41.159Z,26.10
2019-04-14T13:58:10.617Z,26.00
2019-04-14T14:00:40.019Z,26.63
2019-04-14T14:03:10.135Z,25.70
2019-04-14T14:05:39.535Z,27.27
2019-04-14T14:08:08.923Z,28.80
2019-04-14T14:10:38.259Z,28.33
2019-04-14T14:13:18.406Z,28.17
2019-04-14T14:15:49.472Z,26.00
2019-04-14T14:18:29.418Z,26.57
2019-04-14T14:21:09.430Z,26.73
2019-04-14T14:23:40.458Z,27.20
2019-04-14T14:26:11.505Z,27.37
2019-04-14T14:28:40.840Z,27.37
2019-04-14T14:31:10.164Z,25.87
2019-04-14T14:33:39.458Z,27.27
2019-04-14T14:36:08.819Z,27.53
2019-04-14T14:38:38.235Z,26.37
2019-04-14T14:41:09.937Z,27.43
2019-04-14T14:43:39.364Z,28.30
2019-04-14T14:46:22.344Z,27.83
2019-04-14T14:49:02.309Z,27.60
2019-04-14T14:51:33.257Z,27.80
2019-04-14T14:54:02.597Z,25.37
2019-04-14T14:56:32.048Z,27.70
2019-04-14T14:59:01.371Z,27.50
2019-04-14T15:01:31.436Z,27.20
2019-04-14T15:04:00.777Z,27.77
2019-04-14T15:06:30.244Z,27.37
2019-04-14T15:08:59.562Z,27.70
2019-04-14T15:11:28.923Z,28.57
2019-04-14T15:13:59.425Z,26.00
2019-04-14T15:16:28.915Z,27.63
2019-04-14T15:18:58.302Z,27.60
2019-04-14T15:21:27.611Z,27.43
2019-04-14T15:23:57.057Z,27.77
2019-04-14T15:26:26.453Z,28.20
2019-04-14T15:28:55.785Z,27.23
2019-04-14T15:31:25.115Z,29.60
2019-04-14T15:33:54.610Z,28.30
2019-04-14T15:36:23.986Z,29.33
2019-04-14T15:38:53.385Z,29.10
2019-04-14T15:41:22.758Z,29.30
2019-04-14T15:43:52.113Z,29.07
2019-04-14T15:46:22.496Z,31.10
2019-04-14T15:48:51.858Z,28.70
2019-04-14T15:51:21.249Z,29.97
2019-04-14T15:53:50.570Z,29.83
2019-04-14T15:56:22.438Z,30.80
2019-04-14T15:58:53.406Z,33.83
2019-04-14T16:01:36.645Z,31.37
2019-04-14T16:04:24.008Z,31.37
2019-04-14T16:06:54.984Z,30.40
2019-04-14T16:09:28.929Z,32.07
2019-04-14T16:12:03.024Z,31.13
2019-04-14T16:14:36.819Z,31.27
2019-04-14T16:17:10.639Z,30.83
2019-04-14T16:19:44.656Z,30.80
2019-04-14T16:22:14.089Z,31.93
2019-04-14T16:24:43.568Z,31.70
2019-04-14T16:27:26.635Z,31.93
2019-04-14T16:30:14.196Z,32.87
2019-04-14T16:32:48.495Z,31.00
2019-04-14T16:35:22.427Z,29.00
2019-04-14T16:37:51.827Z,29.37
2019-04-14T16:40:21.226Z,29.30
2019-04-14T16:42:51.945Z,27.27
2019-04-14T16:45:21.696Z,22.90
2019-04-14T16:47:51.076Z,24.07
2019-04-14T16:50:20.470Z,22.20
2019-04-14T16:53:07.806Z,21.47
2019-04-14T16:55:44.873Z,22.00
2019-04-14T16:58:15.931Z,22.27
2019-04-14T17:00:46.900Z,20.83
2019-04-14T17:04:53.875Z,21.53
2019-04-14T17:07:23.247Z,21.03
2019-04-14T17:09:52.579Z,20.37
2019-04-14T17:12:23.033Z,22.37
2019-04-14T17:14:56.778Z,22.73
2019-04-14T17:17:33.866Z,22.10
2019-04-14T17:20:12.226Z,23.73
2019-04-14T17:22:52.354Z,22.07
2019-04-14T17:25:23.376Z,21.67
2019-04-14T17:27:54.368Z,20.40
2019-04-14T17:30:25.494Z,22.13
2019-04-14T17:33:11.742Z,20.27
2019-04-14T17:35:48.602Z,21.50
2019-04-14T17:38:19.652Z,19.97
2019-04-14T17:40:50.876Z,19.50
2019-04-14T17:43:24.842Z,20.80
2019-04-14T17:46:07.427Z,27.93
2019-04-14T17:48:53.582Z,26.55
2019-04-14T17:51:36.687Z,25.30
2019-04-14T17:54:13.632Z,22.93
2019-04-14T17:56:47.314Z,21.40
2019-04-14T17:59:27.435Z,24.37
2019-04-14T18:02:13.124Z,20.33
2019-04-14T18:04:53.357Z,20.37
2019-04-14T18:07:27.319Z,20.20
2019-04-14T18:10:01.270Z,20.07
2019-04-14T18:12:33.396Z,19.83
2019-04-14T18:15:20.862Z,20.70
2019-04-14T18:18:08.571Z,25.30
2019-04-14T18:20:39.654Z,21.13
2019-04-14T18:23:08.988Z,19.33
2019-04-14T18:25:38.449Z,18.27
2019-04-14T18:28:18.214Z,21.50
2019-04-14T18:30:55.276Z,19.97
2019-04-14T18:33:35.448Z,21.12
2019-04-14T18:36:06.675Z,20.23
2019-04-14T18:38:40.722Z,22.90
2019-04-14T18:41:23.899Z,20.90
2019-04-14T18:44:11.454Z,20.27
2019-04-14T18:47:00.729Z,20.73
2019-04-14T18:49:40.611Z,19.03
2019-04-14T18:52:11.641Z,19.33
2019-04-14T18:54:54.336Z,19.50
2019-04-14T18:57:18.595Z,18.53
2019-04-14T18:59:52.469Z,17.37
2019-04-14T19:02:23.479Z,18.07
2019-04-14T19:04:53.521Z,18.57
2019-04-14T19:07:23.078Z,19.83
2019-04-14T19:09:52.530Z,19.43
2019-04-14T19:12:29.172Z,18.03
2019-04-14T19:15:04.589Z,19.40
2019-04-14T19:17:35.603Z,18.03
2019-04-14T19:20:06.349Z,22.30
2019-04-14T19:22:35.815Z,19.50
2019-04-14T19:25:08.270Z,17.90
2019-04-14T19:27:38.827Z,18.27
2019-04-14T19:30:08.449Z,19.93
2019-04-14T19:32:38.052Z,18.30
2019-04-14T19:35:07.628Z,19.80
2019-04-14T19:37:38.410Z,19.30
2019-04-14T19:40:08.019Z,19.43
2019-04-14T19:42:37.439Z,18.47
2019-04-14T19:45:06.902Z,17.00
2019-04-14T19:47:36.375Z,19.50
2019-04-14T19:50:07.728Z,19.67
2019-04-14T19:52:37.245Z,18.97
2019-04-14T19:55:06.617Z,18.63
2019-04-14T19:57:36.045Z,20.93
2019-04-14T20:00:05.912Z,19.87
2019-04-14T20:02:36.590Z,19.17
2019-04-14T20:05:06.463Z,18.33
2019-04-14T20:07:35.888Z,19.20
2019-04-14T20:10:06.708Z,17.83
2019-04-14T20:12:36.014Z,18.07
2019-04-14T20:15:05.743Z,20.80
2019-04-14T20:17:45.679Z,19.27
2019-04-14T20:20:26.835Z,20.03
2019-04-14T20:22:57.865Z,19.83
2019-04-14T20:25:43.946Z,18.40
2019-04-14T20:28:15.042Z,17.37
2019-04-14T20:30:54.858Z,17.93
2019-04-14T20:33:24.249Z,17.37
2019-04-14T20:35:53.622Z,16.37
2019-04-14T20:38:22.980Z,17.33
2019-04-14T20:40:52.542Z,15.80
2019-04-14T20:43:21.913Z,17.13
2019-04-14T20:45:51.264Z,16.87
2019-04-14T20:48:20.667Z,16.03
2019-04-14T20:50:50.074Z,16.63
2019-04-14T20:53:19.465Z,15.00
2019-04-14T20:55:49.042Z,16.03
2019-04-14T20:58:18.487Z,15.43
2019-04-14T21:00:47.992Z,15.57
2019-04-14T21:03:22.900Z,15.47
2019-04-14T21:06:10.144Z,15.17
2019-04-14T21:08:57.808Z,14.33
2019-04-14T21:11:28.860Z,15.33
2019-04-14T21:14:13.253Z,14.83
2019-04-14T21:16:53.547Z,15.73
2019-04-14T21:19:24.586Z,14.67
2019-04-14T21:21:55.576Z,14.37
2019-04-14T21:24:32.275Z,13.87
2019-04-14T21:27:06.044Z,13.93
2019-04-14T21:29:46.074Z,13.43
2019-04-14T21:32:26.053Z,14.63
2019-04-14T21:34:57.141Z,13.80
2019-04-14T21:37:28.196Z,12.00
2019-04-14T21:39:59.194Z,13.30
2019-04-14T21:42:28.597Z,14.00
2019-04-14T21:44:57.998Z,13.93
2019-04-14T21:47:28.635Z,14.33
2019-04-14T21:49:57.958Z,13.77
2019-04-14T21:52:38.271Z,13.40
2019-04-14T21:55:07.594Z,12.67
2019-04-14T21:57:41.799Z,14.20
2019-04-14T22:00:15.581Z,14.00
2019-04-14T22:03:00.300Z,15.77
2019-04-14T22:05:44.402Z,14.37
2019-04-14T22:08:18.178Z,14.00
2019-04-14T22:10:55.115Z,15.13
2019-04-14T22:13:27.014Z,14.27
2019-04-14T22:15:56.392Z,14.97
2019-04-14T22:18:25.790Z,14.03
2019-04-14T22:20:55.165Z,15.63
2019-04-14T22:23:24.655Z,13.60
2019-04-14T22:25:53.970Z,14.13
2019-04-14T22:28:23.428Z,14.90
2019-04-14T22:30:52.768Z,13.80
2019-04-14T22:33:22.062Z,14.47
2019-04-14T22:35:51.452Z,13.83
2019-04-14T22:38:20.847Z,14.83
2019-04-14T22:40:50.351Z,14.93
2019-04-14T22:43:19.733Z,14.73
2019-04-14T22:45:49.054Z,15.60
2019-04-14T22:48:18.472Z,15.43
2019-04-14T22:50:47.845Z,14.63
2019-04-14T22:53:17.251Z,15.03
2019-04-14T22:55:46.659Z,14.67
2019-04-14T22:58:15.997Z,14.80
2019-04-14T23:00:49.619Z,14.67
2019-04-14T23:03:22.335Z,14.83
2019-04-14T23:05:56.227Z,15.13
2019-04-14T23:08:29.883Z,15.40
2019-04-14T23:11:00.863Z,14.60
2019-04-14T23:13:49.901Z,14.40
2019-04-14T23:16:37.099Z,14.73
2019-04-14T23:19:08.089Z,15.17
2019-04-14T23:21:39.071Z,13.80
2019-04-14T23:24:18.878Z,14.87
2019-04-14T23:26:52.967Z,15.00
2019-04-14T23:29:19.270Z,13.77
2019-04-14T23:31:48.671Z,14.53
2019-04-14T23:34:18.055Z,14.90
2019-04-14T23:36:47.479Z,14.43
2019-04-14T23:39:16.857Z,14.27
2019-04-14T23:41:46.178Z,14.37
2019-04-14T23:44:15.566Z,14.50
2019-04-14T23:46:44.876Z,14.33
2019-04-14T23:49:14.325Z,13.90
2019-04-14T23:51:43.759Z,14.80
2019-04-14T23:54:13.151Z,13.27
2019-04-14T23:56:42.465Z,13.60
2019-04-14T23:59:11.798Z,13.87
